Time;durP1;ratioP1;P1;durP2;ratioP2;P2;SDS_P1;SDS_P2;PMS_P1;PMS_P2;Temp;Humidity;BMP_temperature;BMP_pressure;BME280_temperature;BME280_humidity;BME280_pressure;Samples;Min_cycle;Max_cycle;Signal;HPM_P1;HPM_P2
2022/01/14 00:01:37;;;;;;;32.65;6.30;;;8.10;99.90;;;;;;5094158;28;20111;-74
2022/01/14 00:04:03;;;;;;;37.60;6.95;;;8.10;99.90;;;;;;5095014;28;20440;-73
2022/01/14 00:06:28;;;;;;;36.53;6.95;;;8.10;99.90;;;;;;5094741;28;20070;-73
2022/01/14 00:09:01;;;;;;;45.92;7.18;;;8.10;99.90;;;;;;5098656;28;20031;-75
2022/01/14 00:11:30;;;;;;;43.95;6.53;;;8.10;99.90;;;;;;5099833;28;20023;-74
2022/01/14 00:14:08;;;;;;;43.72;8.02;;;8.10;99.90;;;;;;5095378;28;20089;-74
2022/01/14 00:16:34;;;;;;;38.22;6.90;;;8.00;99.90;;;;;;5076211;28;20028;-74
2022/01/14 00:19:00;;;;;;;42.92;7.55;;;8.00;99.90;;;;;;5095580;28;20052;-77
2022/01/14 00:21:27;;;;;;;40.85;7.43;;;8.00;99.90;;;;;;5097495;28;20096;-73
2022/01/14 00:24:05;;;;;;;33.80;7.25;;;8.10;99.90;;;;;;5099425;28;20469;-75
2022/01/14 00:32:06;;;;;;;46.88;8.18;;;7.90;99.90;;;;;;5093957;28;20158;-73
2022/01/14 00:34:32;;;;;;;42.55;7.20;;;7.90;99.90;;;;;;5093629;28;20044;-74
2022/01/14 00:37:00;;;;;;;41.10;7.82;;;7.90;99.90;;;;;;5093094;28;20058;-75
2022/01/14 00:39:25;;;;;;;40.20;6.90;;;7.80;99.90;;;;;;5075374;28;20024;-75
2022/01/14 00:41:51;;;;;;;36.95;7.40;;;7.80;99.90;;;;;;5093861;28;20093;-75
2022/01/14 00:44:17;;;;;;;36.05;7.60;;;7.80;99.90;;;;;;5094213;28;20472;-75
2022/01/14 00:46:44;;;;;;;39.33;7.97;;;7.80;99.90;;;;;;5095904;28;20424;-75
2022/01/14 00:49:11;;;;;;;32.83;7.47;;;7.90;99.90;;;;;;5097504;28;20051;-74
2022/01/14 00:51:37;;;;;;;38.88;8.27;;;7.90;99.90;;;;;;5096856;28;20028;-76
2022/01/14 00:54:04;;;;;;;36.05;8.48;;;7.90;99.90;;;;;;5094668;28;20020;-73
2022/01/14 00:56:34;;;;;;;40.53;6.93;;;7.90;99.90;;;;;;5074726;28;20028;-75
2022/01/14 00:59:15;;;;;;;51.78;7.93;;;7.90;99.90;;;;;;5074933;28;20477;-73
2022/01/14 01:01:43;;;;;;;39.45;7.80;;;7.90;99.90;;;;;;5093359;28;20027;-75
2022/01/14 01:04:14;;;;;;;42.08;8.70;;;7.90;99.90;;;;;;5092841;28;20027;-75
2022/01/14 01:06:41;;;;;;;35.95;7.25;;;7.90;99.90;;;;;;5092555;28;20066;-74
2022/01/14 01:09:10;;;;;;;36.67;7.80;;;7.90;99.90;;;;;;5074718;28;20024;-74
2022/01/14 01:11:41;;;;;;;48.75;7.35;;;7.80;99.90;;;;;;5093109;28;20096;-75
2022/01/14 01:14:17;;;;;;;47.67;7.85;;;7.80;99.90;;;;;;5093630;28;20078;-74
2022/01/14 01:16:43;;;;;;;42.22;8.20;;;7.70;99.90;;;;;;5094058;28;20396;-75
2022/01/14 01:19:09;;;;;;;49.95;8.88;;;7.70;99.90;;;;;;5093393;28;20027;-74
2022/01/14 01:21:35;;;;;;;45.90;7.20;;;7.70;99.90;;;;;;5093062;28;20085;-74
2022/01/14 01:24:01;;;;;;;39.90;7.32;;;7.80;99.90;;;;;;5075490;28;20035;-74
2022/01/14 01:26:31;;;;;;;45.65;7.30;;;7.70;99.90;;;;;;5092932;28;20024;-73
2022/01/14 01:29:04;;;;;;;37.75;7.22;;;7.70;99.90;;;;;;5093215;28;20027;-73
2022/01/14 01:31:37;;;;;;;43.20;7.60;;;7.70;99.90;;;;;;5092695;28;20016;-75
2022/01/14 01:34:14;;;;;;;53.60;8.68;;;7.70;99.90;;;;;;5093152;28;20024;-73
2022/01/14 01:36:42;;;;;;;34.58;6.78;;;7.70;99.90;;;;;;5092672;28;20472;-75
2022/01/14 01:39:10;;;;;;;35.63;6.75;;;7.70;99.90;;;;;;5092838;28;20024;-77
2022/01/14 01:41:39;;;;;;;28.25;6.88;;;7.70;99.90;;;;;;5092588;28;20081;-74
2022/01/14 01:44:07;;;;;;;41.42;7.47;;;7.70;99.90;;;;;;5092491;28;20473;-75
2022/01/14 01:46:34;;;;;;;41.28;7.55;;;7.70;99.90;;;;;;5092061;28;20517;-74
2022/01/14 01:49:00;;;;;;;47.10;6.90;;;7.70;99.90;;;;;;5093123;28;20084;-75
2022/01/14 01:51:26;;;;;;;32.72;6.43;;;7.80;99.90;;;;;;5095952;28;20036;-74
2022/01/14 01:53:52;;;;;;;32.90;5.88;;;7.80;99.90;;;;;;5092446;28;20043;-76
2022/01/14 01:56:18;;;;;;;44.05;6.90;;;7.80;99.90;;;;;;5091889;28;20425;-76
2022/01/14 01:58:44;;;;;;;35.92;6.85;;;7.70;99.90;;;;;;5074379;28;20465;-73
2022/01/14 02:01:09;;;;;;;40.00;7.28;;;7.70;99.90;;;;;;5092201;28;20073;-73
2022/01/14 02:03:37;;;;;;;34.40;7.35;;;7.70;99.90;;;;;;5092763;28;20028;-74
2022/01/14 02:06:03;;;;;;;40.97;7.22;;;7.70;99.90;;;;;;5097514;28;20216;-79
2022/01/14 02:08:29;;;;;;;34.90;8.00;;;7.70;99.90;;;;;;5088593;28;20024;-79
2022/01/14 02:10:56;;;;;;;38.63;6.53;;;7.60;99.90;;;;;;5098580;28;20050;-80
2022/01/14 02:13:22;;;;;;;34.92;6.85;;;7.60;99.90;;;;;;5099531;28;20035;-80
2022/01/14 02:16:01;;;;;;;45.13;8.27;;;7.70;99.90;;;;;;5099264;28;20051;-79
2022/01/14 02:23:54;;;;;;;35.58;6.53;;;7.80;99.90;;;;;;5102167;28;20066;-78
2022/01/14 02:26:22;;;;;;;35.22;6.88;;;7.80;99.90;;;;;;5103175;28;20020;-78
2022/01/14 02:28:49;;;;;;;36.90;7.07;;;7.80;99.90;;;;;;5106111;28;20038;-79
2022/01/14 02:31:15;;;;;;;33.25;6.47;;;7.70;99.90;;;;;;5090979;28;20056;-81
2022/01/14 02:33:41;;;;;;;38.10;6.22;;;7.70;99.90;;;;;;5114453;28;20029;-79
2022/01/14 02:36:07;;;;;;;37.60;6.25;;;7.70;99.90;;;;;;5109881;28;20107;-79
2022/01/14 02:38:33;;;;;;;30.92;5.40;;;7.70;99.90;;;;;;5103944;28;20028;-78
2022/01/14 02:40:58;;;;;;;33.25;6.00;;;7.70;99.90;;;;;;5114763;28;20016;-78
2022/01/14 02:43:26;;;;;;;31.92;5.43;;;7.80;99.90;;;;;;5115433;28;20087;-78
2022/01/14 02:45:56;;;;;;;36.72;5.38;;;7.80;99.90;;;;;;5109454;28;20031;-81
2022/01/14 02:48:28;;;;;;;44.70;6.50;;;7.80;99.90;;;;;;5062718;28;20032;-79
2022/01/14 02:53:44;;;;;;;33.05;5.63;;;7.80;99.90;;;;;;5103159;28;20025;-79
2022/01/14 02:56:15;;;;;;;26.83;5.47;;;7.80;99.90;;;;;;5109503;28;20032;-78
2022/01/14 02:58:42;;;;;;;28.70;4.75;;;7.80;99.90;;;;;;5110614;28;20080;-78
2022/01/14 03:01:15;;;;;;;37.00;5.90;;;7.80;99.90;;;;;;5114406;28;20035;-79
2022/01/14 03:03:44;;;;;;;27.98;6.45;;;7.80;99.90;;;;;;5099824;28;20004;-79
2022/01/14 03:06:09;;;;;;;31.30;5.43;;;7.80;99.90;;;;;;5112920;28;20286;-78
2022/01/14 03:08:36;;;;;;;38.55;5.85;;;7.80;99.90;;;;;;5115114;28;20032;-77
2022/01/14 03:11:10;;;;;;;36.30;5.75;;;7.80;99.90;;;;;;5095358;28;20073;-79
2022/01/14 03:13:36;;;;;;;39.58;6.70;;;7.80;99.90;;;;;;5113599;28;20008;-79
2022/01/14 03:16:03;;;;;;;30.48;5.60;;;7.80;99.90;;;;;;5110211;28;20051;-78
2022/01/14 03:18:34;;;;;;;46.05;6.38;;;7.80;99.90;;;;;;5114237;28;20090;-78
2022/01/14 03:21:13;;;;;;;36.38;6.55;;;7.80;99.90;;;;;;5102290;28;20027;-79
2022/01/14 03:23:46;;;;;;;37.83;6.43;;;7.80;99.90;;;;;;5104464;28;20041;-80
2022/01/14 03:26:17;;;;;;;44.50;8.20;;;7.80;99.90;;;;;;5083354;28;20028;-82
2022/01/14 03:28:44;;;;;;;43.72;6.78;;;7.80;99.90;;;;;;5080467;28;20107;-76
2022/01/14 03:31:10;;;;;;;35.80;6.65;;;7.80;99.90;;;;;;5076577;28;20487;-77
2022/01/14 03:33:36;;;;;;;33.25;6.00;;;7.80;99.90;;;;;;5075740;28;20104;-77
2022/01/14 03:36:04;;;;;;;44.35;6.68;;;7.90;99.90;;;;;;5089644;28;20324;-76
2022/01/14 03:38:29;;;;;;;38.53;5.75;;;7.90;99.90;;;;;;5080552;28;20074;-76
2022/01/14 03:40:55;;;;;;;37.85;6.13;;;7.80;99.90;;;;;;5074719;28;20424;-77
2022/01/14 03:43:21;;;;;;;50.92;7.07;;;7.90;99.90;;;;;;5076069;28;20020;-78
2022/01/14 03:45:49;;;;;;;46.00;7.60;;;7.80;99.90;;;;;;5081052;28;20028;-79
2022/01/14 03:48:14;;;;;;;36.70;6.78;;;7.80;99.90;;;;;;5082409;28;20570;-77
2022/01/14 03:50:41;;;;;;;47.78;7.10;;;7.80;99.90;;;;;;5056624;28;20037;-78
2022/01/14 03:53:07;;;;;;;33.35;6.40;;;7.80;99.90;;;;;;5056923;28;20043;-77
2022/01/14 03:55:33;;;;;;;31.85;6.68;;;7.80;99.90;;;;;;5074057;28;20020;-77
2022/01/14 03:57:58;;;;;;;36.72;6.47;;;7.80;99.90;;;;;;5076901;28;20024;-79
2022/01/14 04:00:24;;;;;;;35.08;6.68;;;7.80;99.90;;;;;;5056966;28;20034;-77
2022/01/14 04:02:50;;;;;;;32.28;6.10;;;7.80;99.90;;;;;;5057141;28;20112;-77
2022/01/14 04:05:16;;;;;;;35.33;6.72;;;7.80;99.90;;;;;;5057731;28;20051;-76
2022/01/14 04:07:42;;;;;;;33.42;6.32;;;7.90;99.90;;;;;;5077543;28;20055;-75
2022/01/14 04:10:11;;;;;;;37.50;6.20;;;7.80;99.90;;;;;;5082177;28;20032;-76
2022/01/14 04:18:00;;;;;;;31.83;6.28;;;7.90;99.90;;;;;;5075531;28;20100;-78
2022/01/14 04:20:26;;;;;;;29.83;5.95;;;7.90;99.90;;;;;;5074852;28;20020;-77
2022/01/14 04:22:52;;;;;;;33.78;6.00;;;8.00;99.90;;;;;;5078035;28;20060;-77
2022/01/14 04:25:17;;;;;;;30.90;5.18;;;7.90;99.90;;;;;;5083287;28;20020;-77
2022/01/14 04:27:43;;;;;;;43.28;6.60;;;8.00;99.90;;;;;;5084682;28;20028;-77
2022/01/14 04:30:09;;;;;;;30.10;6.03;;;7.90;99.90;;;;;;5078536;28;20401;-77
2022/01/14 04:32:35;;;;;;;37.40;6.95;;;8.00;99.90;;;;;;5076435;28;20024;-77
2022/01/14 04:35:01;;;;;;;33.88;6.07;;;8.00;99.90;;;;;;5056687;28;20039;-77
2022/01/14 04:37:26;;;;;;;46.40;7.07;;;7.90;99.90;;;;;;5073511;28;20017;-77
2022/01/14 04:39:52;;;;;;;47.08;6.63;;;7.90;99.90;;;;;;5073388;28;20088;-76
2022/01/14 04:42:17;;;;;;;36.65;6.40;;;8.00;99.90;;;;;;5073581;28;20032;-76
2022/01/14 04:44:43;;;;;;;38.83;6.50;;;7.90;99.90;;;;;;5074210;28;20029;-78
2022/01/14 04:47:18;;;;;;;34.72;6.68;;;8.00;99.90;;;;;;5057330;28;20029;-79
2022/01/14 04:49:44;;;;;;;43.80;7.38;;;8.00;99.90;;;;;;5074227;28;20099;-77
2022/01/14 04:52:10;;;;;;;36.78;6.55;;;8.00;99.90;;;;;;5111744;23;20071;-77
2022/01/14 04:54:35;;;;;;;28.75;5.45;;;8.00;99.90;;;;;;5098384;28;20020;-78
2022/01/14 04:57:02;;;;;;;32.75;5.63;;;8.00;99.90;;;;;;5106807;28;20044;-75
2022/01/14 04:59:28;;;;;;;40.35;7.25;;;8.00;99.90;;;;;;5118657;28;20019;-74
2022/01/14 05:01:56;;;;;;;32.45;6.03;;;8.00;99.90;;;;;;5118125;28;20024;-74
2022/01/14 05:04:22;;;;;;;31.33;6.18;;;7.90;99.90;;;;;;5099567;28;20027;-73
2022/01/14 05:06:55;;;;;;;37.15;5.57;;;8.00;99.90;;;;;;5118594;28;20012;-74
2022/01/14 05:09:27;;;;;;;41.45;6.20;;;8.00;99.90;;;;;;5118758;28;20072;-74
2022/01/14 05:11:58;;;;;;;36.90;5.95;;;8.00;99.90;;;;;;5118558;28;20021;-75
2022/01/14 05:14:24;;;;;;;41.42;5.90;;;8.00;99.90;;;;;;5118644;28;20096;-75
2022/01/14 05:16:49;;;;;;;34.30;4.97;;;8.00;99.90;;;;;;5118133;28;20016;-76
2022/01/14 05:19:15;;;;;;;35.75;4.82;;;8.00;99.90;;;;;;5118473;28;20059;-75
2022/01/14 05:21:41;;;;;;;26.48;5.25;;;8.00;99.90;;;;;;5117566;28;20020;-75
2022/01/14 05:24:07;;;;;;;47.45;5.43;;;8.00;99.90;;;;;;5085558;28;20071;-78
2022/01/14 05:26:32;;;;;;;39.28;5.43;;;8.00;99.90;;;;;;5094759;28;20449;-77
2022/01/14 05:28:58;;;;;;;38.47;5.60;;;8.10;99.90;;;;;;5076658;28;20492;-77
2022/01/14 05:31:41;;;;;;;44.85;5.90;;;8.00;99.90;;;;;;5094359;28;20055;-77
2022/01/14 05:34:07;;;;;;;47.13;5.88;;;8.00;99.90;;;;;;5094951;28;20024;-77
2022/01/14 05:36:32;;;;;;;49.15;5.82;;;8.00;99.90;;;;;;5094803;28;20503;-76
2022/01/14 05:38:58;;;;;;;39.88;5.22;;;8.00;99.90;;;;;;5094542;28;20032;-77
2022/01/14 05:41:23;;;;;;;39.45;5.50;;;8.10;99.90;;;;;;5094010;28;20036;-78
2022/01/14 05:43:49;;;;;;;43.63;6.05;;;8.00;99.90;;;;;;5094669;28;20174;-78
2022/01/14 05:46:14;;;;;;;25.85;4.50;;;8.00;99.90;;;;;;5094965;28;20032;-76
2022/01/14 05:48:40;;;;;;;40.67;4.50;;;8.00;99.90;;;;;;5095682;28;20146;-77
2022/01/14 05:51:05;;;;;;;34.35;4.63;;;8.00;99.90;;;;;;5095733;28;20020;-77
2022/01/14 05:53:31;;;;;;;30.35;4.90;;;8.00;99.90;;;;;;5094611;28;20030;-76
2022/01/14 05:55:57;;;;;;;40.67;5.60;;;8.00;99.90;;;;;;5094770;28;20051;-76
2022/01/14 05:58:38;;;;;;;41.38;6.32;;;8.00;99.90;;;;;;5082161;28;20012;-75
2022/01/14 06:01:04;;;;;;;38.72;5.78;;;8.00;99.90;;;;;;5099841;28;20081;-76
2022/01/14 06:03:30;;;;;;;41.60;4.63;;;8.00;99.90;;;;;;5102257;28;20024;-76
2022/01/14 06:05:55;;;;;;;50.85;6.90;;;8.00;99.90;;;;;;5079430;28;20477;-76
2022/01/14 06:08:21;;;;;;;38.90;6.20;;;8.00;99.90;;;;;;5095075;28;20500;-76
2022/01/14 06:10:46;;;;;;;48.15;5.85;;;8.00;99.90;;;;;;5099607;28;20491;-76
2022/01/14 06:13:12;;;;;;;47.20;5.10;;;8.00;99.90;;;;;;5103582;28;20038;-76
2022/01/14 06:15:37;;;;;;;44.13;5.47;;;8.00;99.90;;;;;;5102485;28;20083;-76
2022/01/14 06:18:03;;;;;;;44.75;5.53;;;8.00;99.90;;;;;;5085403;28;20025;-76
2022/01/14 06:20:29;;;;;;;31.42;4.97;;;8.00;99.90;;;;;;5110712;28;20068;-78
2022/01/14 06:22:54;;;;;;;34.88;5.53;;;7.90;99.90;;;;;;5094070;28;20039;-77
2022/01/14 06:25:20;;;;;;;43.97;5.68;;;8.00;99.90;;;;;;5113534;28;20051;-78
2022/01/14 06:27:46;;;;;;;43.60;5.10;;;7.90;99.90;;;;;;5113247;28;20069;-76
2022/01/14 06:30:12;;;;;;;40.78;5.28;;;7.90;99.90;;;;;;5092542;28;20024;-77
2022/01/14 06:32:41;;;;;;;42.42;5.30;;;7.90;99.90;;;;;;5101065;28;20036;-79
2022/01/14 06:35:12;;;;;;;36.33;5.07;;;7.90;99.90;;;;;;5086881;28;20020;-78
2022/01/14 06:37:39;;;;;;;48.13;5.25;;;7.80;99.90;;;;;;5106756;28;20038;-78
2022/01/14 06:40:06;;;;;;;41.15;5.43;;;7.80;99.90;;;;;;5110229;28;20024;-81
2022/01/14 06:42:32;;;;;;;36.30;5.72;;;7.80;99.90;;;;;;5095074;28;20035;-79
2022/01/14 06:44:58;;;;;;;43.67;4.90;;;7.80;99.90;;;;;;5113210;28;20024;-77
2022/01/14 06:47:24;;;;;;;37.40;5.20;;;7.80;99.90;;;;;;5111575;28;20031;-80
2022/01/14 06:49:49;;;;;;;53.75;6.22;;;7.80;99.90;;;;;;5103042;28;20046;-79
2022/01/14 06:52:15;;;;;;;38.20;5.05;;;7.70;99.90;;;;;;5103057;28;20024;-79
2022/01/14 06:54:41;;;;;;;48.80;5.90;;;7.80;99.90;;;;;;5120904;28;20020;-79
2022/01/14 06:57:07;;;;;;;42.95;5.82;;;7.80;99.90;;;;;;5093024;28;20036;-79
2022/01/14 06:59:32;;;;;;;40.85;5.18;;;7.80;99.90;;;;;;5105932;28;20023;-79
2022/01/14 07:02:00;;;;;;;45.30;5.18;;;7.70;99.90;;;;;;5118455;28;20029;-77
2022/01/14 07:04:25;;;;;;;36.78;4.78;;;7.70;99.90;;;;;;5107640;28;20035;-75
2022/01/14 07:06:51;;;;;;;49.60;5.80;;;7.70;99.90;;;;;;5096871;28;20024;-76
2022/01/14 07:09:16;;;;;;;47.72;5.20;;;7.80;99.90;;;;;;5079956;28;20027;-76
2022/01/14 07:11:47;;;;;;;51.33;5.88;;;7.80;99.90;;;;;;5080533;28;20088;-77
2022/01/14 07:14:12;;;;;;;41.38;5.47;;;7.80;99.90;;;;;;5080264;28;20039;-77
2022/01/14 07:16:38;;;;;;;46.10;5.97;;;7.80;99.90;;;;;;5097764;28;20032;-77
2022/01/14 07:19:03;;;;;;;40.20;5.70;;;7.80;99.90;;;;;;5100590;28;20032;-77
2022/01/14 07:21:30;;;;;;;47.05;6.15;;;7.70;99.90;;;;;;5099463;28;20020;-79
2022/01/14 07:23:55;;;;;;;46.00;6.75;;;7.80;99.90;;;;;;5102166;28;20028;-80
2022/01/14 07:26:21;;;;;;;44.80;5.22;;;7.90;99.90;;;;;;5080880;28;20031;-77
2022/01/14 07:28:47;;;;;;;45.08;5.93;;;7.90;99.90;;;;;;5078984;28;20056;-77
2022/01/14 07:31:12;;;;;;;36.38;5.57;;;7.90;99.90;;;;;;5096519;28;20115;-77
2022/01/14 07:33:38;;;;;;;31.55;5.30;;;7.90;99.90;;;;;;5097094;28;20536;-77
2022/01/14 07:36:04;;;;;;;46.90;5.93;;;7.90;99.90;;;;;;5096232;28;20046;-76
2022/01/14 07:38:29;;;;;;;43.88;5.65;;;7.90;99.90;;;;;;5096895;28;20081;-78
2022/01/14 07:40:55;;;;;;;43.28;5.63;;;7.90;99.90;;;;;;5096518;28;20032;-77
2022/01/14 07:43:21;;;;;;;41.80;4.93;;;7.90;99.90;;;;;;5097060;28;20048;-77
2022/01/14 07:45:47;;;;;;;37.63;4.70;;;7.90;99.90;;;;;;5103091;28;20017;-77
2022/01/14 07:48:13;;;;;;;38.80;5.28;;;8.00;99.90;;;;;;5102218;28;20048;-77
2022/01/14 07:50:39;;;;;;;43.03;5.47;;;8.00;99.90;;;;;;5097013;28;20048;-78
2022/01/14 07:53:05;;;;;;;39.58;5.50;;;8.00;99.90;;;;;;5097072;28;20073;-78
2022/01/14 07:55:31;;;;;;;38.08;5.25;;;8.00;99.90;;;;;;5078130;28;20126;-78
2022/01/14 07:57:57;;;;;;;47.17;5.22;;;8.00;99.90;;;;;;5097391;28;20035;-79
2022/01/14 08:00:23;;;;;;;56.90;7.18;;;7.90;99.90;;;;;;5098599;28;20022;-78
2022/01/14 08:02:48;;;;;;;43.10;5.82;;;8.00;99.90;;;;;;5097665;28;20111;-77
2022/01/14 08:05:15;;;;;;;37.85;5.35;;;8.10;99.90;;;;;;5096350;28;20032;-74
2022/01/14 08:07:46;;;;;;;46.80;6.28;;;8.10;99.90;;;;;;5095591;28;20492;-73
2022/01/14 08:10:13;;;;;;;38.78;5.22;;;8.20;99.90;;;;;;5077360;28;20036;-74
2022/01/14 08:12:40;;;;;;;56.65;6.03;;;8.20;99.90;;;;;;5096300;28;20027;-77
2022/01/14 08:15:07;;;;;;;50.13;6.40;;;8.30;99.90;;;;;;5097018;28;20095;-76
2022/01/14 08:17:32;;;;;;;46.95;6.15;;;8.30;99.90;;;;;;5094978;28;20035;-77
2022/01/14 08:19:58;;;;;;;36.85;5.30;;;8.40;99.90;;;;;;5078184;28;20020;-76
2022/01/14 08:22:23;;;;;;;51.13;6.45;;;8.40;99.90;;;;;;5077808;28;20092;-75
2022/01/14 08:24:49;;;;;;;38.05;4.95;;;8.40;99.90;;;;;;5097111;28;20024;-77
2022/01/14 08:27:15;;;;;;;42.78;4.95;;;8.40;99.90;;;;;;5084103;28;20020;-75
2022/01/14 08:29:41;;;;;;;36.78;5.40;;;8.40;99.90;;;;;;5102445;28;20036;-75
2022/01/14 08:32:07;;;;;;;64.20;6.35;;;8.40;99.90;;;;;;5083169;28;20028;-76
2022/01/14 08:34:33;;;;;;;52.50;6.05;;;8.40;99.90;;;;;;5094967;28;20031;-76
2022/01/14 08:36:59;;;;;;;38.42;5.30;;;8.40;99.90;;;;;;5094961;28;20039;-75
2022/01/14 08:39:24;;;;;;;48.85;6.65;;;8.30;99.90;;;;;;5095318;28;20024;-76
2022/01/14 08:41:50;;;;;;;48.80;6.53;;;8.40;99.90;;;;;;5095551;28;20016;-76
2022/01/14 08:44:16;;;;;;;50.60;6.55;;;8.40;99.90;;;;;;5076915;28;20496;-77
2022/01/14 08:46:42;;;;;;;57.03;6.43;;;8.40;99.90;;;;;;5094328;28;20034;-73
2022/01/14 08:49:09;;;;;;;57.20;6.40;;;8.40;99.90;;;;;;5095291;28;20020;-76
2022/01/14 08:51:36;;;;;;;43.28;5.63;;;8.30;99.90;;;;;;5094508;28;20032;-75
2022/01/14 08:54:03;;;;;;;41.25;6.03;;;8.30;99.90;;;;;;5076387;28;20103;-75
2022/01/14 08:56:30;;;;;;;67.18;6.20;;;8.30;99.90;;;;;;5094142;28;20028;-76
2022/01/14 08:58:56;;;;;;;44.83;5.47;;;8.30;99.90;;;;;;5095470;28;20367;-76
2022/01/14 09:01:22;;;;;;;41.72;6.63;;;8.20;99.90;;;;;;5094935;28;20116;-75
2022/01/14 09:03:48;;;;;;;38.25;6.03;;;8.20;99.90;;;;;;5094938;28;20095;-75
2022/01/14 09:06:13;;;;;;;46.35;7.13;;;8.10;99.90;;;;;;5094728;28;20366;-75
2022/01/14 09:08:39;;;;;;;48.20;7.07;;;8.10;99.90;;;;;;5094723;28;20448;-74
2022/01/14 09:11:07;;;;;;;40.58;5.88;;;8.10;99.90;;;;;;5095138;28;20034;-77
2022/01/14 09:13:33;;;;;;;60.63;6.15;;;8.10;99.90;;;;;;5094806;28;20480;-77
2022/01/14 09:15:59;;;;;;;56.83;8.38;;;8.00;99.90;;;;;;5096187;28;20115;-76
2022/01/14 09:18:25;;;;;;;47.72;6.00;;;7.90;99.90;;;;;;5110842;28;20040;-75
2022/01/14 09:20:50;;;;;;;54.75;8.05;;;8.00;99.90;;;;;;5101026;28;20020;-77
2022/01/14 09:23:23;;;;;;;49.10;7.50;;;7.90;99.90;;;;;;5095703;28;20103;-76
2022/01/14 09:25:49;;;;;;;50.90;6.35;;;7.90;99.90;;;;;;5075971;28;20028;-76
2022/01/14 09:28:15;;;;;;;49.05;6.35;;;8.00;99.90;;;;;;5082702;28;20222;-74
2022/01/14 09:30:40;;;;;;;84.53;21.45;;;7.90;99.90;;;;;;5071938;28;20090;-76
2022/01/14 09:33:06;;;;;;;63.15;10.55;;;8.00;99.90;;;;;;5077292;28;20385;-75
2022/01/14 09:35:33;;;;;;;50.63;6.25;;;8.10;99.90;;;;;;5075271;28;20509;-74
2022/01/14 09:38:02;;;;;;;39.35;6.75;;;8.10;99.90;;;;;;5061601;28;20404;-75
2022/01/14 09:40:28;;;;;;;54.78;6.85;;;8.10;99.90;;;;;;5078540;28;20135;-77
2022/01/14 09:43:00;;;;;;;55.25;6.53;;;8.10;99.90;;;;;;5074060;28;20027;-76
2022/01/14 09:45:28;;;;;;;46.45;6.70;;;8.00;99.90;;;;;;5073350;28;20021;-77
2022/01/14 09:47:55;;;;;;;49.58;7.18;;;8.00;99.90;;;;;;5073475;28;20370;-76
2022/01/14 09:50:22;;;;;;;44.17;6.75;;;8.00;99.90;;;;;;5074435;28;20044;-77
2022/01/14 09:52:51;;;;;;;44.42;7.55;;;8.00;99.90;;;;;;5073841;28;20043;-76
2022/01/14 09:55:19;;;;;;;49.90;7.13;;;7.90;99.90;;;;;;5073841;28;20023;-78
2022/01/14 09:57:45;;;;;;;56.15;8.02;;;7.90;99.90;;;;;;5073123;28;20105;-77
2022/01/14 10:00:11;;;;;;;45.88;7.07;;;8.00;99.90;;;;;;5091394;28;20024;-77
2022/01/14 10:02:40;;;;;;;51.42;7.75;;;8.00;99.90;;;;;;5097157;28;20023;-78
2022/01/14 10:05:08;;;;;;;50.22;7.60;;;8.10;99.90;;;;;;5098329;28;20051;-78
2022/01/14 10:07:34;;;;;;;45.33;7.57;;;8.10;99.90;;;;;;5079746;28;20005;-77
2022/01/14 10:10:01;;;;;;;42.30;7.45;;;8.10;99.90;;;;;;5102084;28;20037;-76
2022/01/14 10:12:33;;;;;;;43.80;8.02;;;8.10;99.90;;;;;;5084403;28;20024;-77
2022/01/14 10:15:10;;;;;;;41.78;6.55;;;8.00;99.90;;;;;;5100934;28;20029;-77
2022/01/14 10:17:39;;;;;;;38.65;6.82;;;8.00;99.90;;;;;;5083781;28;20036;-76
2022/01/14 10:20:08;;;;;;;28.27;5.40;;;8.00;99.90;;;;;;5102080;28;20009;-79
2022/01/14 10:22:35;;;;;;;41.03;8.35;;;8.10;99.90;;;;;;5102218;28;20037;-78
2022/01/14 10:25:06;;;;;;;38.97;6.22;;;8.10;99.90;;;;;;5087064;28;20025;-76
2022/01/14 10:27:37;;;;;;;35.42;5.65;;;8.10;99.90;;;;;;5081520;28;20020;-78
2022/01/14 10:30:20;;;;;;;41.05;6.45;;;8.10;99.90;;;;;;5086203;28;20020;-77
2022/01/14 10:33:07;;;;;;;40.55;5.65;;;8.10;99.90;;;;;;5059335;28;20120;-78
2022/01/14 10:35:41;;;;;;;40.65;6.60;;;8.00;99.90;;;;;;5059663;28;20033;-77
2022/01/14 10:38:10;;;;;;;34.07;6.63;;;8.00;99.90;;;;;;5077766;28;20051;-78
2022/01/14 10:40:41;;;;;;;36.40;6.68;;;8.00;99.90;;;;;;5077650;28;20619;-75
2022/01/14 10:43:09;;;;;;;36.92;5.93;;;8.00;99.90;;;;;;5077625;28;20027;-75
2022/01/14 10:45:37;;;;;;;33.88;5.35;;;8.10;99.90;;;;;;5076924;28;20136;-76
2022/01/14 10:48:12;;;;;;;31.13;5.32;;;8.10;99.90;;;;;;5076553;28;20024;-75
2022/01/14 10:50:44;;;;;;;;;;;8.20;99.90;;;;;;5077307;28;20473;-76
2022/01/14 10:53:15;;;;;;;40.50;9.18;;;8.20;99.90;;;;;;5112647;23;19920;-78
2022/01/14 10:55:47;;;;;;;59.47;17.60;;;8.20;99.90;;;;;;5104285;28;20024;-76
2022/01/14 10:58:16;;;;;;;50.72;17.50;;;8.20;99.90;;;;;;5104129;28;20068;-77
2022/01/14 11:00:50;;;;;;;61.50;21.20;;;8.30;99.90;;;;;;5100952;28;20028;-77
2022/01/14 11:03:32;;;;;;;38.15;8.68;;;8.30;99.90;;;;;;5104932;28;20024;-78
2022/01/14 11:06:22;;;;;;;27.85;7.00;;;8.30;99.90;;;;;;5087026;28;20040;-76
2022/01/14 11:08:53;;;;;;;30.13;8.68;;;8.40;99.90;;;;;;5104146;28;20035;-77
2022/01/14 11:11:19;;;;;;;26.13;3.97;;;8.50;99.90;;;;;;5102386;28;20095;-78
2022/01/14 11:13:45;;;;;;;22.23;3.67;;;8.60;99.90;;;;;;5101490;28;20048;-78
2022/01/14 11:16:10;;;;;;;17.38;3.60;;;8.50;99.90;;;;;;5108554;28;20020;-77
2022/01/14 11:18:37;;;;;;;22.25;4.18;;;8.60;99.90;;;;;;5103221;28;20028;-78
2022/01/14 11:23:47;;;;;;;21.00;4.07;;;8.50;99.90;;;;;;5091290;28;20111;-77
2022/01/14 11:26:16;;;;;;;13.13;2.95;;;8.50;99.90;;;;;;5094485;28;20262;-77
2022/01/14 11:28:44;;;;;;;15.60;3.00;;;8.50;99.90;;;;;;5096725;28;20039;-76
2022/01/14 11:31:31;;;;;;;15.65;3.08;;;8.50;99.90;;;;;;5099069;28;20024;-76
2022/01/14 11:34:00;;;;;;;8.82;2.58;;;8.50;99.90;;;;;;5098082;28;20027;-77
2022/01/14 11:36:58;;;;;;;12.77;3.08;;;8.50;99.90;;;;;;5104880;28;20060;-79
2022/01/14 11:39:36;;;;;;;39.67;16.83;;;8.50;99.90;;;;;;5103401;28;20025;-77
2022/01/14 11:42:12;;;;;;;12.18;2.67;;;8.50;99.90;;;;;;5096392;28;20039;-77
2022/01/14 11:44:52;;;;;;;16.40;3.00;;;8.50;99.90;;;;;;5098471;28;20358;-77
2022/01/14 11:47:24;;;;;;;16.58;3.88;;;8.60;99.90;;;;;;5097309;28;20543;-76
2022/01/14 11:49:51;;;;;;;9.10;3.20;;;8.60;99.90;;;;;;5107611;28;20020;-78
2022/01/14 11:52:33;;;;;;;9.02;2.20;;;8.60;99.90;;;;;;5104700;28;20032;-76
2022/01/14 11:54:58;;;;;;;14.60;2.90;;;8.60;99.90;;;;;;5094914;28;20065;-76
2022/01/14 11:57:39;;;;;;;11.73;2.70;;;8.60;99.90;;;;;;5091477;28;20012;-76
2022/01/14 12:00:25;;;;;;;19.38;3.38;;;8.60;99.90;;;;;;5096228;28;20023;-77
2022/01/14 12:02:51;;;;;;;9.18;2.30;;;8.60;99.90;;;;;;5088375;28;20050;-76
2022/01/14 12:05:20;;;;;;;9.48;2.30;;;8.60;99.90;;;;;;5116054;28;20019;-76
2022/01/14 12:08:04;;;;;;;8.98;2.20;;;8.60;99.90;;;;;;5117146;28;20023;-76
2022/01/14 12:10:39;;;;;;;8.20;2.23;;;8.60;99.90;;;;;;5117535;28;20353;-76
2022/01/14 12:16:03;;;;;;;10.63;2.35;;;8.60;99.90;;;;;;5116609;28;20024;-76
2022/01/14 12:18:56;;;;;;;14.75;2.55;;;8.60;99.90;;;;;;5099757;28;20030;-76
2022/01/14 12:21:44;;;;;;;10.98;2.97;;;8.60;99.90;;;;;;5117508;28;20464;-77
2022/01/14 12:24:18;;;;;;;21.05;3.38;;;8.50;99.90;;;;;;5131970;28;20031;-77
2022/01/14 12:27:05;;;;;;;15.45;2.78;;;8.50;99.90;;;;;;5117188;28;20492;-76
2022/01/14 12:29:39;;;;;;;12.10;3.20;;;8.60;99.90;;;;;;5105231;28;20047;-79
2022/01/14 12:32:18;;;;;;;14.63;3.22;;;8.50;99.90;;;;;;5101511;28;20030;-77
2022/01/14 12:34:56;;;;;;;13.55;4.07;;;8.60;99.90;;;;;;5119831;28;20047;-76
2022/01/14 12:37:48;;;;;;;11.98;2.80;;;8.60;99.90;;;;;;5120513;28;20081;-76
2022/01/14 12:40:19;;;;;;;8.75;2.88;;;8.60;99.90;;;;;;5125236;28;20083;-76
2022/01/14 12:43:02;;;;;;;6.15;2.40;;;8.70;99.90;;;;;;5122274;28;20020;-77
2022/01/14 12:48:51;;;;;;;13.43;2.72;;;8.70;99.90;;;;;;5096004;28;20074;-78
2022/01/14 12:51:19;;;;;;;18.80;2.97;;;8.70;99.90;;;;;;5100039;28;20027;-77
2022/01/14 12:54:00;;;;;;;13.63;3.20;;;8.70;99.90;;;;;;5085224;28;20085;-78
2022/01/14 12:56:29;;;;;;;14.45;4.05;;;8.70;99.90;;;;;;5079565;28;20028;-77
2022/01/14 12:59:01;;;;;;;12.77;3.30;;;8.80;99.90;;;;;;5098706;28;20103;-78
2022/01/14 13:01:41;;;;;;;11.50;3.17;;;8.80;99.90;;;;;;5100701;28;20024;-78
2022/01/14 13:04:14;;;;;;;12.20;3.55;;;8.80;99.90;;;;;;5099724;28;20028;-79
2022/01/14 13:06:47;;;;;;;12.43;3.30;;;8.80;99.90;;;;;;5081652;28;20020;-78
2022/01/14 13:09:18;;;;;;;19.20;4.38;;;8.80;99.90;;;;;;5101663;28;20026;-78
2022/01/14 13:11:51;;;;;;;13.88;3.75;;;8.80;99.90;;;;;;5096103;28;20024;-78
2022/01/14 13:14:24;;;;;;;11.15;3.35;;;8.80;99.90;;;;;;5098383;28;20085;-78
2022/01/14 13:16:51;;;;;;;13.15;4.13;;;8.80;99.90;;;;;;5095978;28;20024;-77
2022/01/14 13:19:28;;;;;;;15.43;3.40;;;8.90;99.90;;;;;;5097304;28;20024;-79
2022/01/14 13:21:54;;;;;;;11.43;3.47;;;8.90;99.90;;;;;;5101566;28;20051;-78
2022/01/14 13:24:28;;;;;;;15.23;4.20;;;8.90;99.90;;;;;;5098456;28;20029;-77